Arkdale, Wisconsin
Current Conditions -  °F | °C
As of 5:58 PM on Saturday 20 Dec 2014 (Local Time) from KVOK Reporting Station
Overcast Overcast  
Wind Chill: 23°   Ceiling: 1400
Heat Index: 30°   Visibility: 10mi
Dew Point: 30°   Wind: 7mph
Humidity: 100%   Direction: 150°SSE
Pressure: 30.19"   Gusts: NA
Location:  44.03°N, 89.89°W
Report Text: KVOK 202358Z AUTO 15006KT 10SM OVC014 M01/M01 A3019 RMK AO2 SLP239 60000 T10131013 11010 21014 52003
Loading
Personal Weather Stations






























Interactive Weather Map New forecast layout! Learn more

10-Day Weather Forecast

Advertisements
Track Severe Weather on mobile